createdAt,value
2022-11-25T00:04:44.589Z,3.50
2022-11-25T00:09:50.094Z,3.50
2022-11-25T00:14:55.098Z,3.60
2022-11-25T00:20:02.109Z,3.50
2022-11-25T00:25:08.423Z,3.70
2022-11-25T00:30:14.419Z,3.80
2022-11-25T00:35:19.829Z,3.90
2022-11-25T00:40:25.171Z,3.80
2022-11-25T00:45:31.104Z,3.90
2022-11-25T00:50:36.638Z,3.80
2022-11-25T00:55:50.275Z,3.90
2022-11-25T01:00:55.468Z,3.90
2022-11-25T01:06:08.087Z,3.80
2022-11-25T01:11:16.160Z,3.80
2022-11-25T01:16:22.090Z,3.90
2022-11-25T01:21:30.392Z,3.90
2022-11-25T01:26:36.900Z,3.90
2022-11-25T01:31:42.050Z,4.00
2022-11-25T01:36:47.618Z,3.80
2022-11-25T01:41:53.045Z,3.70
2022-11-25T01:47:01.804Z,3.70
2022-11-25T01:52:10.573Z,3.70
2022-11-25T01:57:18.525Z,3.80
2022-11-25T02:02:24.514Z,3.70
2022-11-25T02:07:39.474Z,3.60
2022-11-25T02:12:48.565Z,3.60
2022-11-25T02:17:54.135Z,3.60
2022-11-25T02:23:08.620Z,3.40
2022-11-25T02:28:22.294Z,3.30
2022-11-25T02:33:28.155Z,3.60
2022-11-25T02:38:44.717Z,3.50
2022-11-25T02:43:50.612Z,3.50
2022-11-25T02:49:13.492Z,3.60
2022-11-25T02:54:05.790Z,3.60
2022-11-25T02:59:12.671Z,3.60
2022-11-25T03:04:18.381Z,3.50
2022-11-25T03:09:23.903Z,3.40
2022-11-25T03:14:29.658Z,3.30
2022-11-25T03:19:35.327Z,3.50
2022-11-25T03:24:40.292Z,3.60
2022-11-25T03:29:45.465Z,3.50
2022-11-25T03:34:50.347Z,3.60
2022-11-25T03:39:55.255Z,3.60
2022-11-25T03:45:00.509Z,3.70
2022-11-25T03:50:06.600Z,3.80
2022-11-25T03:55:14.096Z,3.60
2022-11-25T04:00:19.665Z,3.70
2022-11-25T04:05:24.601Z,3.70
2022-11-25T04:10:30.043Z,3.60
2022-11-25T04:15:35.754Z,3.50
2022-11-25T04:20:41.220Z,3.60
2022-11-25T04:25:46.794Z,3.50
2022-11-25T04:30:51.751Z,3.40
2022-11-25T04:35:56.811Z,3.40
2022-11-25T04:41:02.720Z,3.00
2022-11-25T04:46:15.689Z,3.20
2022-11-25T04:51:15.278Z,3.30
2022-11-25T04:56:21.890Z,3.30
2022-11-25T05:01:27.098Z,3.20
2022-11-25T05:06:33.441Z,3.10
2022-11-25T05:11:39.348Z,3.20
2022-11-25T05:16:44.384Z,3.30
2022-11-25T05:21:50.050Z,3.10
2022-11-25T05:26:55.584Z,3.30
2022-11-25T05:32:00.894Z,3.10
2022-11-25T05:37:06.969Z,3.40
2022-11-25T05:42:12.018Z,3.40
2022-11-25T05:47:16.926Z,3.40
2022-11-25T05:52:21.822Z,3.20
2022-11-25T05:57:29.201Z,3.30
2022-11-25T06:02:34.745Z,3.30
2022-11-25T06:07:40.515Z,3.40
2022-11-25T06:12:46.345Z,3.30
2022-11-25T06:17:52.050Z,3.30
2022-11-25T06:22:59.769Z,3.30
2022-11-25T06:28:12.726Z,3.20
2022-11-25T06:33:13.667Z,3.30
2022-11-25T06:38:19.214Z,3.50
2022-11-25T06:43:24.116Z,3.40
2022-11-25T06:48:30.403Z,3.50
2022-11-25T06:53:36.995Z,3.50
2022-11-25T06:58:43.254Z,3.50
2022-11-25T07:03:50.082Z,3.30
2022-11-25T07:08:55.753Z,3.40
2022-11-25T07:14:06.793Z,3.40
2022-11-25T07:19:13.922Z,3.40
2022-11-25T07:24:19.213Z,3.60
2022-11-25T07:34:31.848Z,3.80
2022-11-25T07:39:37.328Z,3.80
2022-11-25T07:44:43.289Z,3.90
2022-11-25T07:49:48.155Z,4.10
2022-11-25T07:54:54.868Z,4.20
2022-11-25T07:59:59.783Z,4.30
2022-11-25T08:05:05.425Z,4.20
2022-11-25T08:10:11.066Z,4.30
2022-11-25T08:15:16.077Z,4.70
2022-11-25T08:20:21.738Z,4.80
2022-11-25T08:25:26.857Z,4.90
2022-11-25T08:30:31.743Z,5.10
2022-11-25T08:35:39.016Z,5.00
2022-11-25T08:40:45.985Z,5.10
2022-11-25T08:45:51.697Z,5.30
2022-11-25T08:50:57.010Z,5.30
2022-11-25T08:56:02.350Z,5.30
2022-11-25T09:01:08.139Z,5.40
2022-11-25T09:06:14.183Z,5.30
2022-11-25T09:11:20.336Z,5.40
2022-11-25T09:16:26.957Z,5.40
2022-11-25T09:21:31.931Z,5.60
2022-11-25T09:26:38.649Z,5.80
2022-11-25T09:31:46.263Z,5.90
2022-11-25T09:36:52.056Z,6.00
2022-11-25T09:42:26.370Z,6.10
2022-11-25T09:47:34.970Z,6.20
2022-11-25T09:53:04.660Z,6.10
2022-11-25T09:58:35.102Z,6.10
2022-11-25T10:03:53.034Z,6.20
2022-11-25T10:09:04.126Z,6.30
2022-11-25T10:14:20.764Z,6.30
2022-11-25T10:19:31.731Z,6.50
2022-11-25T10:24:41.195Z,6.60
2022-11-25T10:29:45.760Z,6.70
2022-11-25T10:34:56.826Z,6.60
2022-11-25T10:40:02.213Z,6.60
2022-11-25T10:45:09.580Z,6.60
2022-11-25T10:50:52.580Z,6.80
2022-11-25T10:56:06.502Z,6.90
2022-11-25T11:01:23.790Z,7.20
2022-11-25T11:06:35.041Z,7.10
2022-11-25T11:11:48.384Z,7.20
2022-11-25T11:16:55.995Z,6.80
2022-11-25T11:22:18.403Z,7.30
2022-11-25T11:27:25.843Z,7.40
2022-11-25T11:32:31.239Z,7.30
2022-11-25T11:37:48.557Z,7.30
2022-11-25T11:43:06.816Z,7.60
2022-11-25T11:48:29.796Z,7.80
2022-11-25T11:53:58.055Z,7.70
2022-11-25T11:59:20.886Z,7.50
2022-11-25T12:04:43.960Z,7.10
2022-11-25T12:09:57.838Z,6.80
2022-11-25T12:15:09.077Z,7.00
2022-11-25T12:20:39.118Z,6.70
2022-11-25T12:25:45.520Z,6.30
2022-11-25T12:31:04.718Z,6.30
2022-11-25T12:36:13.791Z,6.60
2022-11-25T12:41:41.100Z,6.80
2022-11-25T12:46:54.983Z,7.10
2022-11-25T12:52:22.688Z,7.40
2022-11-25T12:57:49.154Z,7.70
2022-11-25T13:03:13.772Z,7.80
2022-11-25T13:08:38.733Z,7.80
2022-11-25T13:13:50.142Z,7.60
2022-11-25T13:18:57.328Z,7.60
2022-11-25T13:24:02.651Z,7.50
2022-11-25T13:29:17.093Z,7.50
2022-11-25T13:34:27.925Z,7.50
2022-11-25T13:39:38.522Z,7.40
2022-11-25T13:44:59.094Z,7.00
2022-11-25T13:50:11.944Z,7.10
2022-11-25T13:55:21.229Z,7.10
2022-11-25T14:00:38.368Z,6.80
2022-11-25T14:06:04.739Z,6.80
2022-11-25T14:11:13.197Z,6.30
2022-11-25T14:16:39.958Z,6.40
2022-11-25T14:22:13.107Z,6.10
2022-11-25T14:27:32.856Z,5.90
2022-11-25T14:32:57.699Z,5.70
2022-11-25T14:38:28.278Z,5.20
2022-11-25T14:43:37.669Z,5.20
2022-11-25T14:48:43.924Z,5.40
2022-11-25T14:53:51.334Z,5.30
2022-11-25T14:58:58.314Z,4.90
2022-11-25T15:04:15.383Z,4.60
2022-11-25T15:09:23.815Z,4.20
2022-11-25T15:14:33.425Z,4.20
2022-11-25T15:19:40.133Z,4.40
2022-11-25T15:24:54.749Z,4.50
2022-11-25T15:29:58.615Z,4.50
2022-11-25T15:35:05.629Z,4.40
2022-11-25T15:40:37.968Z,4.10
2022-11-25T15:45:48.366Z,4.10
2022-11-25T15:50:54.437Z,4.00
2022-11-25T15:56:02.156Z,3.90
2022-11-25T16:01:22.720Z,3.90
2022-11-25T16:06:30.135Z,3.60
2022-11-25T16:11:38.812Z,3.70
2022-11-25T16:16:44.325Z,3.40
2022-11-25T16:21:56.813Z,2.80
2022-11-25T16:27:19.783Z,2.70
2022-11-25T16:32:27.849Z,2.80
2022-11-25T16:37:32.920Z,2.80
2022-11-25T16:42:39.654Z,2.40
2022-11-25T16:47:44.882Z,1.90
2022-11-25T16:52:50.901Z,1.90
2022-11-25T16:57:55.826Z,2.10
2022-11-25T17:03:01.490Z,1.90
2022-11-25T17:08:07.071Z,1.90
2022-11-25T17:13:15.864Z,1.80
2022-11-25T17:18:20.831Z,1.50
2022-11-25T17:23:27.140Z,1.60
2022-11-25T17:28:32.435Z,1.50
2022-11-25T17:33:38.127Z,1.40
2022-11-25T17:38:43.141Z,1.40
2022-11-25T17:43:52.165Z,1.50
2022-11-25T17:49:01.190Z,1.50
2022-11-25T17:54:06.851Z,1.30
2022-11-25T17:59:24.258Z,1.50
2022-11-25T18:04:38.504Z,1.60
2022-11-25T18:09:44.856Z,1.60
2022-11-25T18:14:49.917Z,0.90
2022-11-25T18:19:55.635Z,0.90
2022-11-25T18:25:05.263Z,0.30
2022-11-25T18:30:19.594Z,0.50
2022-11-25T18:35:36.179Z,0.80
2022-11-25T18:40:42.950Z,0.80
2022-11-25T18:45:48.936Z,1.20
2022-11-25T18:50:57.098Z,1.20
2022-11-25T18:56:02.174Z,1.10
2022-11-25T19:01:10.406Z,1.30
2022-11-25T19:06:15.483Z,1.30
2022-11-25T19:11:36.635Z,1.30
2022-11-25T19:16:43.278Z,1.20
2022-11-25T19:21:48.909Z,1.10
2022-11-25T19:26:56.595Z,0.80
2022-11-25T19:32:03.595Z,0.90
2022-11-25T19:37:12.336Z,0.80
2022-11-25T19:42:17.882Z,0.70
2022-11-25T19:47:27.449Z,0.90
2022-11-25T19:52:38.297Z,0.80
2022-11-25T19:57:43.524Z,0.60
2022-11-25T20:02:51.564Z,0.40
2022-11-25T20:07:57.083Z,0.70
2022-11-25T20:13:03.178Z,0.60
2022-11-25T20:18:12.596Z,0.80
2022-11-25T20:23:27.008Z,1.10
2022-11-25T20:28:33.030Z,1.20
2022-11-25T20:33:40.081Z,1.30
2022-11-25T20:38:48.247Z,1.30
2022-11-25T20:43:53.452Z,1.10
2022-11-25T20:49:02.410Z,1.30
2022-11-25T20:54:11.564Z,1.30
2022-11-25T20:59:22.481Z,1.30
2022-11-25T21:04:28.332Z,1.00
2022-11-25T21:09:36.876Z,1.10
2022-11-25T21:14:42.422Z,1.20
2022-11-25T21:19:47.690Z,1.40
2022-11-25T21:24:53.084Z,1.50
2022-11-25T21:29:58.431Z,1.50
2022-11-25T21:35:04.379Z,1.50
2022-11-25T21:40:14.971Z,1.80
2022-11-25T21:45:19.985Z,1.70
2022-11-25T21:50:26.819Z,1.80
2022-11-25T21:55:33.641Z,1.70
2022-11-25T22:00:39.759Z,1.90
2022-11-25T22:05:44.802Z,1.80
2022-11-25T22:10:52.912Z,1.90
2022-11-25T22:16:01.670Z,1.70
2022-11-25T22:21:06.708Z,1.60
2022-11-25T22:26:23.663Z,1.60
2022-11-25T22:31:30.059Z,1.80
2022-11-25T22:36:38.043Z,1.80
2022-11-25T22:41:48.825Z,1.90
2022-11-25T22:46:54.273Z,1.90
2022-11-25T22:51:59.719Z,1.90
2022-11-25T22:57:04.669Z,2.00
2022-11-25T23:02:13.132Z,1.70
2022-11-25T23:07:19.607Z,1.70
2022-11-25T23:12:25.348Z,1.80
2022-11-25T23:17:30.569Z,1.90
2022-11-25T23:22:35.894Z,2.00
2022-11-25T23:27:41.101Z,2.10
2022-11-25T23:32:46.961Z,1.90
2022-11-25T23:37:57.256Z,1.80
2022-11-25T23:43:03.465Z,2.00
2022-11-25T23:48:10.370Z,2.20
2022-11-25T23:53:24.136Z,2.30
2022-11-25T23:58:30.285Z,2.20
